Time;durP1;ratioP1;P1;durP2;ratioP2;P2;SDS_P1;SDS_P2;PMS_P1;PMS_P2;Temp;Humidity;BMP_temperature;BMP_pressure;BME280_temperature;BME280_humidity;BME280_pressure;Samples;Min_cycle;Max_cycle;Signal;HPM_P1;HPM_P2
2021/09/18 00:00:42;;;;;;;4.70;3.33;;;22.50;71.80;;;;;;5178500;28;20465;-59
2021/09/18 00:03:15;;;;;;;3.33;2.78;;;22.50;71.80;;;;;;5181177;28;20056;-57
2021/09/18 00:05:48;;;;;;;6.00;3.15;;;22.50;72.00;;;;;;5177102;28;20053;-57
2021/09/18 00:08:20;;;;;;;3.78;3.10;;;22.50;71.50;;;;;;5180231;28;20044;-60
2021/09/18 00:10:52;;;;;;;7.45;3.33;;;22.50;71.50;;;;;;5180732;28;20474;-58
2021/09/18 00:13:25;;;;;;;5.93;3.47;;;22.50;71.50;;;;;;5177852;28;20693;-58
2021/09/18 00:15:59;;;;;;;4.22;3.30;;;22.50;71.60;;;;;;5181324;28;20056;-54
2021/09/18 00:18:32;;;;;;;4.05;3.58;;;22.50;71.50;;;;;;5171847;28;20053;-58
2021/09/18 00:21:04;;;;;;;4.07;3.22;;;22.50;71.40;;;;;;5178012;28;20049;-58
2021/09/18 00:23:37;;;;;;;3.50;3.00;;;22.40;71.50;;;;;;5175935;28;20061;-57
2021/09/18 00:26:09;;;;;;;5.50;3.00;;;22.40;71.50;;;;;;5157895;28;20041;-57
2021/09/18 00:28:42;;;;;;;6.68;3.20;;;22.40;71.40;;;;;;5160662;28;20046;-58
2021/09/18 00:31:14;;;;;;;4.57;3.00;;;22.40;71.40;;;;;;5178492;28;20064;-58
2021/09/18 00:33:47;;;;;;;4.50;2.92;;;22.40;71.20;;;;;;5177720;28;20037;-60
2021/09/18 00:36:19;;;;;;;5.95;3.75;;;22.40;71.30;;;;;;5180264;28;20052;-58
2021/09/18 00:38:52;;;;;;;4.57;3.50;;;22.40;71.20;;;;;;5174037;28;20049;-56
2021/09/18 00:41:25;;;;;;;4.47;3.00;;;22.40;71.20;;;;;;5154241;28;20064;-58
2021/09/18 00:43:59;;;;;;;4.87;3.13;;;22.40;71.00;;;;;;5177153;28;20069;-58
2021/09/18 00:46:31;;;;;;;5.55;3.17;;;22.40;71.10;;;;;;5180392;28;20052;-56
2021/09/18 00:49:04;;;;;;;3.80;3.05;;;22.40;71.20;;;;;;5183687;28;20052;-59
2021/09/18 00:51:37;;;;;;;4.88;2.78;;;22.30;71.20;;;;;;5178329;28;20065;-57
2021/09/18 00:54:13;;;;;;;4.07;3.00;;;22.40;71.20;;;;;;5178848;28;20457;-59
2021/09/18 00:56:46;;;;;;;6.07;3.40;;;22.30;71.00;;;;;;5181302;28;20061;-58
2021/09/18 00:59:18;;;;;;;6.22;3.50;;;22.30;70.90;;;;;;5177207;28;20494;-57
2021/09/18 01:01:51;;;;;;;4.80;2.78;;;22.30;71.00;;;;;;5177048;28;20065;-57
2021/09/18 01:04:23;;;;;;;3.97;2.90;;;22.30;70.80;;;;;;5180484;28;20053;-56
2021/09/18 01:06:56;;;;;;;4.53;3.40;;;22.30;70.90;;;;;;5182813;28;20057;-58
2021/09/18 01:09:29;;;;;;;3.97;2.63;;;22.30;71.00;;;;;;5178224;28;20637;-58
2021/09/18 01:12:03;;;;;;;;;;;22.30;71.00;;;;;;5178902;28;20339;-56
2021/09/18 01:14:35;;;;;;;3.30;2.70;;;22.20;70.70;;;;;;5175422;28;20524;-59
2021/09/18 01:17:08;;;;;;;6.20;3.03;;;22.30;71.00;;;;;;5178520;28;20038;-56
2021/09/18 01:19:41;;;;;;;4.80;3.08;;;22.20;70.80;;;;;;5175764;28;20054;-59
2021/09/18 01:22:18;;;;;;;5.13;2.67;;;22.20;70.80;;;;;;5161593;28;20049;-58
2021/09/18 01:24:51;;;;;;;4.47;2.72;;;22.20;70.80;;;;;;5177968;28;20053;-59
2021/09/18 01:27:23;;;;;;;3.42;2.70;;;22.30;70.90;;;;;;5175816;28;20496;-59
2021/09/18 01:29:55;;;;;;;3.88;2.92;;;22.20;70.80;;;;;;5173016;28;20037;-58
2021/09/18 01:32:28;;;;;;;4.05;2.80;;;22.20;70.60;;;;;;5177591;28;20038;-58
2021/09/18 01:35:00;;;;;;;4.97;3.10;;;22.20;70.50;;;;;;5172207;28;20486;-58
2021/09/18 01:37:36;;;;;;;4.60;2.67;;;22.20;70.60;;;;;;5178469;28;20049;-58
2021/09/18 01:40:09;;;;;;;3.22;2.88;;;22.20;70.60;;;;;;5180441;28;20267;-57
2021/09/18 01:42:43;;;;;;;4.07;3.03;;;22.20;70.50;;;;;;5165398;28;20057;-58
2021/09/18 01:45:16;;;;;;;3.25;2.90;;;22.20;70.50;;;;;;5182936;28;20053;-59
2021/09/18 01:47:52;;;;;;;3.07;2.43;;;22.20;70.40;;;;;;5180060;28;20053;-57
2021/09/18 01:50:28;;;;;;;5.35;3.03;;;22.20;70.40;;;;;;5168306;28;20045;-58
2021/09/18 01:53:04;;;;;;;4.60;2.75;;;22.20;70.60;;;;;;5170907;28;20048;-54
2021/09/18 01:55:37;;;;;;;3.92;2.85;;;22.10;70.50;;;;;;5185385;28;20058;-57
2021/09/18 01:58:10;;;;;;;5.82;2.60;;;22.20;70.50;;;;;;5182600;28;20613;-57
2021/09/18 02:00:49;;;;;;;3.88;2.40;;;22.20;70.50;;;;;;5176911;28;20056;-56
2021/09/18 02:03:22;;;;;;;3.60;2.40;;;22.20;70.40;;;;;;5164369;28;20057;-57
2021/09/18 02:05:55;;;;;;;2.92;2.60;;;22.10;70.20;;;;;;5185994;28;20506;-58
2021/09/18 02:08:27;;;;;;;3.72;2.60;;;22.10;70.30;;;;;;5183416;28;20033;-58
2021/09/18 02:11:00;;;;;;;3.60;2.95;;;22.10;70.30;;;;;;5182482;28;20064;-57
2021/09/18 02:13:32;;;;;;;2.83;2.58;;;22.10;70.20;;;;;;5178213;28;20060;-58
2021/09/18 02:16:05;;;;;;;3.13;2.55;;;22.10;70.30;;;;;;5181328;28;20667;-58
2021/09/18 02:18:38;;;;;;;4.40;2.90;;;22.10;70.20;;;;;;5176615;28;20165;-58
2021/09/18 02:21:11;;;;;;;3.63;2.78;;;22.10;70.20;;;;;;5177148;28;20045;-56
2021/09/18 02:23:43;;;;;;;3.65;2.83;;;22.10;70.20;;;;;;5180177;28;20450;-57
2021/09/18 02:26:16;;;;;;;3.95;2.75;;;22.10;70.20;;;;;;5182787;28;20063;-57
2021/09/18 02:28:48;;;;;;;4.17;2.40;;;22.10;70.10;;;;;;5178258;28;20092;-58
2021/09/18 02:31:21;;;;;;;3.25;2.38;;;22.10;70.00;;;;;;5176562;28;20049;-56
2021/09/18 02:33:53;;;;;;;3.65;2.92;;;22.10;70.00;;;;;;5176797;28;20048;-57
2021/09/18 02:36:26;;;;;;;3.85;2.63;;;22.10;70.00;;;;;;5174407;28;20048;-57
2021/09/18 02:38:58;;;;;;;5.22;2.53;;;22.00;70.00;;;;;;5175721;28;20053;-57
2021/09/18 02:41:30;;;;;;;2.38;2.15;;;22.10;70.00;;;;;;5180345;28;20413;-58
2021/09/18 02:44:03;;;;;;;3.22;2.70;;;22.10;70.00;;;;;;5166649;28;20535;-57
2021/09/18 02:46:36;;;;;;;3.25;2.50;;;22.00;69.90;;;;;;5173197;28;20064;-56
2021/09/18 02:49:09;;;;;;;3.08;2.65;;;22.10;70.00;;;;;;5185698;28;20045;-58
2021/09/18 02:51:41;;;;;;;4.22;2.42;;;22.00;69.90;;;;;;5179791;28;20057;-55
2021/09/18 02:54:13;;;;;;;3.42;2.50;;;22.00;69.90;;;;;;5180496;28;20045;-58
2021/09/18 02:56:46;;;;;;;4.60;2.60;;;22.00;69.80;;;;;;5177425;28;20046;-59
2021/09/18 02:59:20;;;;;;;3.22;2.85;;;22.00;69.80;;;;;;5179168;28;20510;-57
2021/09/18 03:01:52;;;;;;;3.50;2.47;;;22.00;69.80;;;;;;5179263;28;20049;-56
2021/09/18 03:04:25;;;;;;;2.80;2.50;;;22.00;69.90;;;;;;5175055;28;20061;-58
2021/09/18 03:06:58;;;;;;;3.08;2.58;;;22.00;69.80;;;;;;5178465;28;20698;-58
2021/09/18 03:09:31;;;;;;;4.95;2.33;;;22.00;69.80;;;;;;5172001;28;20131;-57
2021/09/18 03:12:04;;;;;;;3.13;2.20;;;22.00;69.70;;;;;;5181648;28;20990;-55
2021/09/18 03:14:36;;;;;;;3.47;2.75;;;22.00;69.60;;;;;;5176320;28;20049;-58
2021/09/18 03:17:09;;;;;;;3.47;2.70;;;22.00;69.60;;;;;;5182080;28;20388;-58
2021/09/18 03:19:41;;;;;;;3.60;2.40;;;22.00;69.50;;;;;;5177065;28;20064;-59
2021/09/18 03:22:14;;;;;;;3.03;2.22;;;22.00;69.60;;;;;;5178547;28;20506;-57
2021/09/18 03:24:46;;;;;;;5.00;2.50;;;22.00;69.60;;;;;;5177950;28;20054;-55
2021/09/18 03:27:19;;;;;;;3.17;2.22;;;21.90;69.50;;;;;;5163151;28;20065;-57
2021/09/18 03:29:52;;;;;;;3.28;2.67;;;21.90;69.60;;;;;;5186474;28;20512;-58
2021/09/18 03:32:24;;;;;;;4.15;2.30;;;22.00;69.50;;;;;;5164485;28;20050;-58
2021/09/18 03:34:57;;;;;;;4.90;2.65;;;22.00;69.60;;;;;;5182408;28;20037;-58
2021/09/18 03:37:33;;;;;;;4.40;2.70;;;21.90;69.50;;;;;;5185879;28;20556;-57
2021/09/18 03:40:09;;;;;;;5.47;2.28;;;22.00;69.50;;;;;;5187176;28;20510;-57
2021/09/18 03:42:41;;;;;;;6.22;2.70;;;22.00;69.50;;;;;;5184225;28;20060;-55
2021/09/18 03:45:14;;;;;;;3.15;2.72;;;21.90;69.40;;;;;;5169400;28;20057;-58
2021/09/18 03:47:47;;;;;;;5.10;2.55;;;21.90;69.40;;;;;;5184411;28;20422;-57
2021/09/18 03:50:19;;;;;;;3.45;2.30;;;21.90;69.30;;;;;;5184885;28;20045;-56
2021/09/18 03:52:52;;;;;;;3.17;2.10;;;21.90;69.30;;;;;;5187641;28;20060;-56
2021/09/18 03:55:24;;;;;;;2.88;2.20;;;21.90;69.30;;;;;;5180535;28;20048;-58
2021/09/18 03:57:57;;;;;;;4.70;2.40;;;21.90;69.10;;;;;;5189192;28;20433;-55
2021/09/18 04:00:30;;;;;;;3.22;2.50;;;21.90;69.10;;;;;;5183753;28;20426;-57
2021/09/18 04:03:02;;;;;;;3.17;2.10;;;21.90;69.00;;;;;;5178178;28;20049;-55
2021/09/18 04:05:38;;;;;;;2.65;2.30;;;21.90;69.20;;;;;;5180240;28;20307;-57
2021/09/18 04:08:11;;;;;;;3.70;2.13;;;21.90;69.40;;;;;;5181979;28;20056;-59
2021/09/18 04:10:45;;;;;;;3.35;2.10;;;21.90;69.30;;;;;;5159959;28;20406;-57
2021/09/18 04:13:17;;;;;;;3.88;2.30;;;21.90;69.30;;;;;;5183975;28;20042;-57
2021/09/18 04:15:50;;;;;;;4.65;2.40;;;21.90;69.30;;;;;;5185874;28;20064;-59
2021/09/18 04:18:22;;;;;;;2.75;2.25;;;21.90;69.30;;;;;;5180893;28;20486;-57
2021/09/18 04:20:55;;;;;;;2.70;2.03;;;21.90;69.40;;;;;;5183451;28;20060;-59
2021/09/18 04:23:28;;;;;;;4.55;2.60;;;21.90;69.60;;;;;;5186982;28;20537;-55
2021/09/18 04:26:00;;;;;;;4.20;2.10;;;21.90;69.60;;;;;;5187079;28;20056;-55
2021/09/18 04:28:33;;;;;;;3.70;2.58;;;21.90;69.70;;;;;;5172711;28;20068;-57
2021/09/18 04:31:05;;;;;;;2.85;1.73;;;21.90;69.70;;;;;;5181504;28;20045;-58
2021/09/18 04:33:39;;;;;;;;;;;21.90;69.70;;;;;;5185771;28;20057;-56
2021/09/18 04:36:11;;;;;;;2.20;2.00;;;21.90;69.80;;;;;;5179480;28;19940;-57
2021/09/18 04:38:44;;;;;;;5.30;2.47;;;21.90;69.80;;;;;;5176333;28;20521;-59
2021/09/18 04:41:16;;;;;;;4.70;2.35;;;21.90;69.80;;;;;;5161764;28;20427;-57
2021/09/18 04:43:51;;;;;;;3.88;1.83;;;21.90;69.90;;;;;;5187197;28;20434;-56
2021/09/18 04:46:25;;;;;;;3.50;1.90;;;21.90;69.80;;;;;;5185908;28;20049;-58
2021/09/18 04:48:57;;;;;;;7.35;2.40;;;21.90;69.90;;;;;;5167365;28;20052;-56
2021/09/18 04:51:31;;;;;;;3.67;1.63;;;21.90;69.90;;;;;;5186738;28;20056;-57
2021/09/18 04:54:04;;;;;;;4.25;2.20;;;21.90;69.90;;;;;;5174522;28;20045;-57
2021/09/18 04:56:36;;;;;;;2.85;2.10;;;21.90;69.90;;;;;;5182608;28;20052;-58
2021/09/18 04:59:09;;;;;;;5.30;1.85;;;21.90;69.90;;;;;;5175498;28;20061;-58
2021/09/18 05:01:42;;;;;;;7.30;2.17;;;21.90;70.00;;;;;;5177946;28;20048;-58
2021/09/18 05:04:15;;;;;;;2.17;1.98;;;21.90;69.90;;;;;;5164332;28;20050;-59
2021/09/18 05:06:48;;;;;;;1.95;1.65;;;21.90;69.80;;;;;;5170782;28;20046;-55
2021/09/18 05:09:20;;;;;;;3.53;2.00;;;21.90;69.90;;;;;;5170742;28;20058;-58
2021/09/18 05:11:52;;;;;;;3.38;1.90;;;21.90;69.90;;;;;;5173473;28;20048;-58
2021/09/18 05:14:25;;;;;;;2.30;1.98;;;21.90;69.90;;;;;;5167257;28;20045;-59
2021/09/18 05:16:57;;;;;;;3.78;1.73;;;21.90;69.90;;;;;;5169523;28;20170;-58
2021/09/18 05:19:30;;;;;;;2.08;1.88;;;21.90;69.80;;;;;;5160007;28;20057;-57
2021/09/18 05:22:02;;;;;;;4.20;1.92;;;21.90;69.90;;;;;;5168505;28;20532;-57
2021/09/18 05:24:35;;;;;;;5.38;2.47;;;21.90;70.00;;;;;;5166650;28;20060;-58
2021/09/18 05:27:08;;;;;;;2.47;2.10;;;21.90;69.90;;;;;;5145427;28;20053;-57
2021/09/18 05:29:43;;;;;;;2.73;1.70;;;21.90;70.00;;;;;;5151135;28;20049;-57
2021/09/18 05:32:15;;;;;;;2.83;2.10;;;21.90;70.00;;;;;;5154970;28;20050;-59
2021/09/18 05:34:48;;;;;;;3.17;2.05;;;21.90;70.00;;;;;;5143849;28;20050;-57
2021/09/18 05:37:20;;;;;;;6.88;2.05;;;21.90;70.00;;;;;;5158400;28;20046;-57
2021/09/18 05:39:53;;;;;;;4.72;1.88;;;21.90;70.10;;;;;;5150717;28;20506;-59
2021/09/18 05:42:26;;;;;;;4.97;1.85;;;21.90;70.00;;;;;;5152125;28;20054;-53
2021/09/18 05:44:58;;;;;;;5.80;2.15;;;21.90;70.20;;;;;;5158734;28;20056;-59
2021/09/18 05:47:31;;;;;;;4.90;2.17;;;21.90;70.20;;;;;;5173009;28;20068;-59
2021/09/18 05:50:04;;;;;;;7.45;2.00;;;21.90;70.30;;;;;;5171084;28;21842;-56
2021/09/18 05:52:36;;;;;;;5.80;2.08;;;21.90;70.40;;;;;;5177381;28;20061;-57
2021/09/18 05:55:10;;;;;;;5.57;2.17;;;21.90;70.50;;;;;;5171511;28;20052;-58
2021/09/18 05:57:42;;;;;;;5.13;1.98;;;21.90;70.60;;;;;;5173126;28;20437;-56
2021/09/18 06:00:15;;;;;;;6.72;2.40;;;21.90;70.60;;;;;;5172597;28;20049;-58
2021/09/18 06:02:47;;;;;;;6.50;2.53;;;21.90;70.70;;;;;;5166147;28;20066;-57
2021/09/18 06:05:21;;;;;;;5.32;2.10;;;21.90;70.60;;;;;;5165971;28;20093;-59
2021/09/18 06:07:53;;;;;;;5.32;2.20;;;21.90;70.60;;;;;;5175377;28;20060;-58
2021/09/18 06:10:26;;;;;;;5.00;2.20;;;21.90;70.50;;;;;;5158351;28;20045;-58
2021/09/18 06:12:58;;;;;;;7.00;2.55;;;21.90;70.40;;;;;;5159181;28;20052;-57
2021/09/18 06:15:31;;;;;;;5.47;2.08;;;21.90;70.40;;;;;;5162792;28;20499;-59
2021/09/18 06:18:03;;;;;;;4.70;2.08;;;21.90;70.40;;;;;;5166443;28;20068;-56
2021/09/18 06:20:36;;;;;;;5.50;2.13;;;21.90;70.40;;;;;;5163014;28;20364;-55
2021/09/18 06:23:08;;;;;;;7.90;2.13;;;21.90;70.40;;;;;;5173996;28;20495;-58
2021/09/18 06:25:41;;;;;;;4.82;2.28;;;21.90;70.40;;;;;;5166489;28;20324;-59
2021/09/18 06:28:14;;;;;;;6.63;2.20;;;21.90;70.40;;;;;;5169241;28;20430;-58
2021/09/18 06:30:47;;;;;;;7.07;2.40;;;21.90;70.50;;;;;;5174557;28;20486;-57
2021/09/18 06:33:19;;;;;;;9.98;2.38;;;21.90;70.40;;;;;;5183988;28;20041;-58
2021/09/18 06:35:52;;;;;;;5.38;1.90;;;21.90;70.50;;;;;;5177400;28;21073;-59
2021/09/18 06:38:24;;;;;;;8.13;2.20;;;21.90;70.50;;;;;;5178772;28;20229;-59
2021/09/18 06:40:58;;;;;;;6.43;3.28;;;21.90;70.50;;;;;;5176702;28;20052;-56
2021/09/18 06:43:33;;;;;;;7.07;2.17;;;21.90;70.60;;;;;;5178324;28;20069;-57
2021/09/18 06:46:05;;;;;;;10.98;2.10;;;21.90;70.60;;;;;;5180672;28;20414;-57
2021/09/18 06:48:38;;;;;;;13.75;2.80;;;21.90;70.60;;;;;;5163659;28;20056;-58
2021/09/18 06:51:10;;;;;;;13.13;2.33;;;21.90;70.60;;;;;;5177079;28;20044;-59
2021/09/18 06:53:43;;;;;;;2.97;2.33;;;21.90;70.60;;;;;;5185248;28;20038;-57
2021/09/18 06:56:16;;;;;;;9.23;2.25;;;21.90;70.70;;;;;;5184334;28;20061;-59
2021/09/18 06:58:48;;;;;;;9.90;2.60;;;21.90;70.70;;;;;;5188522;28;20437;-58
2021/09/18 07:01:22;;;;;;;8.38;2.67;;;21.90;70.70;;;;;;5181820;28;20053;-58
2021/09/18 07:03:55;;;;;;;8.88;2.65;;;21.90;70.70;;;;;;5185106;28;20504;-58
2021/09/18 07:06:27;;;;;;;16.33;2.97;;;21.90;70.70;;;;;;5179002;28;20053;-57
2021/09/18 07:09:00;;;;;;;23.95;4.25;;;21.90;70.80;;;;;;5187287;28;20057;-57
2021/09/18 07:11:32;;;;;;;28.90;2.97;;;21.90;70.90;;;;;;5180844;28;20816;-58
2021/09/18 07:14:06;;;;;;;17.13;3.65;;;21.90;70.90;;;;;;5166194;28;20056;-56
2021/09/18 07:16:39;;;;;;;11.02;2.70;;;21.90;70.80;;;;;;5171249;28;20042;-60
2021/09/18 07:19:11;;;;;;;14.85;2.75;;;21.90;70.80;;;;;;5178030;28;20056;-59
2021/09/18 07:21:44;;;;;;;8.65;2.50;;;21.90;70.80;;;;;;5183538;28;20049;-58
2021/09/18 07:24:16;;;;;;;12.15;3.72;;;21.90;70.80;;;;;;5185883;28;20053;-59
2021/09/18 07:26:51;;;;;;;10.38;2.95;;;21.90;70.80;;;;;;5169042;28;20050;-59
2021/09/18 07:29:24;;;;;;;7.70;2.67;;;21.90;70.80;;;;;;5167470;28;22128;-56
2021/09/18 07:31:57;;;;;;;13.15;2.95;;;21.90;70.80;;;;;;5174425;28;20045;-58
2021/09/18 07:34:30;;;;;;;;;;;21.90;70.90;;;;;;5153505;28;20414;-58
2021/09/18 07:37:02;;;;;;;12.98;2.70;;;21.90;70.80;;;;;;5159447;28;19929;-60
2021/09/18 07:39:35;;;;;;;22.37;3.50;;;21.90;70.90;;;;;;5162729;28;20082;-59
2021/09/18 07:42:08;;;;;;;15.47;2.60;;;21.90;70.90;;;;;;5164951;28;20060;-59
2021/09/18 07:44:40;;;;;;;10.75;2.85;;;21.90;70.90;;;;;;5166607;28;20057;-55
2021/09/18 07:47:13;;;;;;;10.77;2.58;;;21.90;71.00;;;;;;5181516;28;20058;-54
2021/09/18 07:49:45;;;;;;;5.17;2.43;;;22.00;71.00;;;;;;5176682;28;20060;-58
2021/09/18 07:52:18;;;;;;;11.38;2.42;;;22.00;71.00;;;;;;5180235;28;20378;-58
2021/09/18 07:54:50;;;;;;;7.07;2.65;;;22.00;71.00;;;;;;5165761;28;20041;-58
2021/09/18 07:57:43;;;;;;;13.30;2.35;;;22.00;71.10;;;;;;5169332;28;20522;-56
2021/09/18 08:00:16;;;;;;;12.60;3.00;;;22.00;71.10;;;;;;5181085;28;20053;-58
2021/09/18 08:02:51;;;;;;;4.35;2.47;;;22.00;71.10;;;;;;5184648;28;20057;-58
2021/09/18 08:05:24;;;;;;;10.38;2.88;;;22.00;71.20;;;;;;5179198;28;20054;-58
2021/09/18 08:07:57;;;;;;;4.57;2.58;;;22.00;71.30;;;;;;5172593;28;20073;-59
2021/09/18 08:10:30;;;;;;;4.53;2.40;;;22.00;71.40;;;;;;5179275;28;20045;-56
2021/09/18 08:13:03;;;;;;;11.63;2.97;;;22.00;71.50;;;;;;5179533;28;20052;-58
2021/09/18 08:15:36;;;;;;;10.73;2.40;;;22.00;71.50;;;;;;5180646;28;20041;-58
2021/09/18 08:18:08;;;;;;;7.07;2.72;;;22.00;71.60;;;;;;5154885;28;20042;-58
2021/09/18 08:20:41;;;;;;;6.40;2.47;;;22.00;71.60;;;;;;5176987;28;20411;-59
2021/09/18 08:23:13;;;;;;;3.95;2.88;;;22.10;71.60;;;;;;5180990;28;20045;-56
2021/09/18 08:25:45;;;;;;;6.38;2.20;;;22.00;71.60;;;;;;5178516;28;20422;-58
2021/09/18 08:28:18;;;;;;;8.43;2.55;;;22.10;71.60;;;;;;5174349;28;20049;-58
2021/09/18 08:30:51;;;;;;;8.73;2.33;;;22.00;71.60;;;;;;5178716;28;20049;-56
2021/09/18 08:33:23;;;;;;;14.00;3.20;;;22.10;71.70;;;;;;5177317;28;20056;-56
2021/09/18 08:35:56;;;;;;;6.90;2.30;;;22.10;71.90;;;;;;5177929;28;20510;-56
2021/09/18 08:38:28;;;;;;;16.00;3.10;;;22.10;71.90;;;;;;5172675;28;20041;-57
2021/09/18 08:41:01;;;;;;;9.40;2.75;;;22.10;72.00;;;;;;5179361;28;20060;-56
2021/09/18 08:43:33;;;;;;;6.75;2.67;;;22.10;72.10;;;;;;5167551;28;20057;-59
2021/09/18 08:46:07;;;;;;;8.27;2.33;;;22.10;72.30;;;;;;5169004;28;20049;-57
2021/09/18 08:48:40;;;;;;;9.40;3.10;;;22.10;72.30;;;;;;5182608;28;20052;-58
2021/09/18 08:51:13;;;;;;;9.45;2.75;;;22.10;72.30;;;;;;5184270;28;20048;-58
2021/09/18 08:53:46;;;;;;;8.98;2.80;;;22.10;72.30;;;;;;5184155;28;20045;-59
2021/09/18 08:56:20;;;;;;;6.63;2.13;;;22.20;72.30;;;;;;5162023;28;20042;-59
2021/09/18 08:58:53;;;;;;;6.40;2.50;;;22.10;72.30;;;;;;5184819;28;20060;-57
2021/09/18 09:01:26;;;;;;;10.32;2.55;;;22.10;72.30;;;;;;5181751;28;20057;-58
2021/09/18 09:04:04;;;;;;;10.10;2.70;;;22.10;72.40;;;;;;5180886;28;20046;-56
2021/09/18 09:06:47;;;;;;;7.30;2.83;;;22.20;72.50;;;;;;5181184;28;20060;-58
2021/09/18 09:09:20;;;;;;;5.35;2.80;;;22.20;72.50;;;;;;5165234;28;20045;-59
2021/09/18 09:11:53;;;;;;;8.57;2.60;;;22.20;72.50;;;;;;5163581;28;20050;-58
2021/09/18 09:14:43;;;;;;;6.72;2.22;;;22.20;72.50;;;;;;5179618;28;20654;-57
2021/09/18 09:17:26;;;;;;;7.85;2.78;;;22.20;72.50;;;;;;5183985;28;20037;-59
2021/09/18 09:19:59;;;;;;;9.83;2.57;;;22.20;72.60;;;;;;5182900;28;20632;-59
2021/09/18 09:22:42;;;;;;;6.80;2.50;;;22.20;72.60;;;;;;5181316;28;20046;-59
2021/09/18 09:25:35;;;;;;;6.32;2.97;;;22.20;72.60;;;;;;5189480;28;20056;-58
2021/09/18 09:28:29;;;;;;;8.38;2.83;;;22.20;72.70;;;;;;5178691;28;20468;-58
2021/09/18 09:31:12;;;;;;;7.67;2.93;;;22.20;72.70;;;;;;5178364;28;20060;-59
2021/09/18 09:34:15;;;;;;;2.75;2.33;;;22.20;72.70;;;;;;5185554;28;20076;-58
2021/09/18 09:36:50;;;;;;;9.13;2.50;;;22.30;72.70;;;;;;5185537;28;20045;-59
2021/09/18 09:39:24;;;;;;;4.43;2.42;;;22.30;72.70;;;;;;5183680;28;20498;-58
2021/09/18 09:41:57;;;;;;;4.88;2.38;;;22.20;72.70;;;;;;5164270;28;20096;-57
2021/09/18 09:44:32;;;;;;;7.82;2.80;;;22.30;72.80;;;;;;5180822;28;20060;-58
2021/09/18 09:47:09;;;;;;;5.78;2.35;;;22.30;72.80;;;;;;5181716;28;20057;-58
2021/09/18 09:49:43;;;;;;;8.35;2.80;;;22.30;72.70;;;;;;5182910;28;20053;-57
2021/09/18 09:52:16;;;;;;;8.38;2.25;;;22.30;72.80;;;;;;5180962;28;20056;-59
2021/09/18 09:54:50;;;;;;;5.57;2.22;;;22.30;72.80;;;;;;5170944;28;20072;-57
2021/09/18 09:57:23;;;;;;;7.03;2.40;;;22.30;72.70;;;;;;5169115;28;20061;-58
2021/09/18 10:00:00;;;;;;;4.80;2.70;;;22.30;72.70;;;;;;5179625;28;20388;-59
2021/09/18 10:02:37;;;;;;;2.75;2.13;;;22.30;72.50;;;;;;5167848;28;20486;-59
2021/09/18 10:05:13;;;;;;;4.93;2.20;;;22.30;72.20;;;;;;5162386;28;20053;-59
2021/09/18 10:07:45;;;;;;;3.30;2.60;;;22.30;72.10;;;;;;5168738;28;20060;-56
2021/09/18 10:10:19;;;;;;;5.97;2.50;;;22.30;71.90;;;;;;5172842;28;20053;-60
2021/09/18 10:12:51;;;;;;;6.95;2.35;;;22.30;71.90;;;;;;5169653;28;20443;-59
2021/09/18 10:15:29;;;;;;;5.22;2.65;;;22.30;71.70;;;;;;5164844;28;20053;-57
2021/09/18 10:18:32;;;;;;;4.88;2.22;;;22.30;71.60;;;;;;5173875;28;20438;-59
2021/09/18 10:24:00;;;;;;;6.63;2.13;;;22.30;71.60;;;;;;5162224;28;20069;-57
2021/09/18 10:26:39;;;;;;;4.55;2.40;;;22.30;71.60;;;;;;5166030;28;20045;-59
2021/09/18 10:29:30;;;;;;;;;;;22.30;71.50;;;;;;5168241;28;20205;-58
2021/09/18 10:32:03;;;;;;;5.03;2.10;;;22.30;71.00;;;;;;5155791;28;19921;-59
2021/09/18 10:34:35;;;;;;;4.70;2.60;;;22.30;71.30;;;;;;5151623;28;20614;-59
2021/09/18 10:37:32;;;;;;;3.72;2.35;;;22.30;71.20;;;;;;5157309;28;20046;-58
2021/09/18 10:40:09;;;;;;;4.68;2.38;;;22.30;71.20;;;;;;5171915;28;20045;-58
2021/09/18 10:42:48;;;;;;;9.77;2.22;;;22.30;71.20;;;;;;5158082;28;20056;-58
2021/09/18 10:45:39;;;;;;;3.65;1.75;;;22.30;71.20;;;;;;5161567;28;20064;-55
2021/09/18 10:48:36;;;;;;;4.93;2.35;;;22.40;71.40;;;;;;5164296;28;20060;-59
2021/09/18 10:51:33;;;;;;;3.35;1.95;;;22.40;71.30;;;;;;5162350;28;20076;-60
2021/09/18 10:54:17;;;;;;;5.70;2.20;;;22.40;71.10;;;;;;5187367;28;20420;-57
2021/09/18 10:57:04;;;;;;;8.27;2.33;;;22.40;70.40;;;;;;5264845;27;20405;-58
2021/09/18 10:59:52;;;;;;;6.65;2.78;;;22.40;69.70;;;;;;5229633;27;20512;-57
2021/09/18 11:02:35;;;;;;;11.75;2.53;;;22.50;69.60;;;;;;5212464;27;20858;-59
2021/09/18 11:05:20;;;;;;;8.68;2.17;;;22.50;69.70;;;;;;5153922;28;20410;-56
2021/09/18 11:08:20;;;;;;;3.80;2.15;;;22.60;69.90;;;;;;5178416;28;20498;-58
2021/09/18 11:11:09;;;;;;;8.50;2.43;;;22.60;70.00;;;;;;5210197;28;20581;-60
2021/09/18 11:13:55;;;;;;;6.38;2.45;;;22.90;69.40;;;;;;5213743;27;20549;-57
2021/09/18 11:16:41;;;;;;;11.38;2.63;;;22.90;69.70;;;;;;5216955;27;20409;-58
2021/09/18 11:19:24;;;;;;;7.55;2.35;;;22.90;70.00;;;;;;5190617;28;20430;-58
2021/09/18 11:22:14;;;;;;;15.27;2.65;;;22.90;70.10;;;;;;5221501;27;20933;-60
2021/09/18 11:25:30;;;;;;;8.55;2.35;;;22.90;70.10;;;;;;5173981;28;20760;-57
2021/09/18 11:28:16;;;;;;;7.25;2.17;;;23.00;70.10;;;;;;5203749;28;20533;-55
2021/09/18 11:31:00;;;;;;;7.78;2.70;;;23.00;70.20;;;;;;5171940;28;21111;-60
2021/09/18 11:33:49;;;;;;;8.95;2.30;;;23.00;70.20;;;;;;5238813;27;21018;-59
2021/09/18 11:36:45;;;;;;;8.10;3.13;;;23.00;69.80;;;;;;5220133;27;20962;-60
2021/09/18 11:39:38;;;;;;;7.70;3.20;;;23.00;69.00;;;;;;5215460;27;20412;-58
2021/09/18 11:42:36;;;;;;;16.23;3.10;;;23.00;68.30;;;;;;5203642;27;20464;-55
2021/09/18 11:45:23;;;;;;;4.07;2.58;;;23.00;67.80;;;;;;5198195;27;20419;-58
2021/09/18 11:48:10;;;;;;;4.68;2.97;;;23.00;68.30;;;;;;5121724;28;20857;-59
2021/09/18 11:50:53;;;;;;;5.88;2.90;;;23.00;67.50;;;;;;5181360;28;20408;-60
2021/09/18 11:53:36;;;;;;;4.43;2.55;;;23.00;67.30;;;;;;5173040;28;21011;-60
2021/09/18 11:56:20;;;;;;;4.43;2.20;;;23.00;67.30;;;;;;5189001;28;20412;-57
2021/09/18 11:59:11;;;;;;;5.78;2.75;;;23.10;67.20;;;;;;5212005;27;20414;-60
2021/09/18 12:01:55;;;;;;;7.35;2.90;;;23.10;67.20;;;;;;5228281;27;20415;-60
2021/09/18 12:04:49;;;;;;;6.97;3.03;;;23.20;67.30;;;;;;5211994;27;20414;-57
2021/09/18 12:07:32;;;;;;;5.07;2.60;;;23.20;67.10;;;;;;5220927;27;20409;-59
2021/09/18 12:10:21;;;;;;;4.97;2.67;;;23.20;67.20;;;;;;5230793;27;20923;-59
2021/09/18 12:13:08;;;;;;;3.60;2.60;;;23.20;67.10;;;;;;5219529;27;20405;-60
2021/09/18 12:15:54;;;;;;;3.85;2.40;;;23.20;67.00;;;;;;5171258;27;20444;-59
2021/09/18 12:18:39;;;;;;;5.63;2.42;;;23.20;66.80;;;;;;5177657;27;20414;-58
2021/09/18 12:21:25;;;;;;;4.90;2.72;;;23.20;66.80;;;;;;5189016;28;20803;-57
2021/09/18 12:24:10;;;;;;;4.28;2.42;;;23.20;66.40;;;;;;5172900;28;20730;-57
2021/09/18 12:26:53;;;;;;;5.07;2.40;;;23.10;66.00;;;;;;5205158;27;1192540;-57
2021/09/18 12:29:35;;;;;;;3.78;2.38;;;23.10;65.50;;;;;;5200054;28;20823;-57
2021/09/18 12:32:18;;;;;;;3.63;2.42;;;23.10;65.20;;;;;;5169213;28;21010;-58
2021/09/18 12:35:09;;;;;;;5.05;3.00;;;23.10;65.10;;;;;;5202737;27;20414;-59
2021/09/18 12:37:59;;;;;;;5.85;2.72;;;23.10;64.70;;;;;;5187987;27;20422;-55
2021/09/18 12:40:47;;;;;;;5.25;2.83;;;23.10;65.00;;;;;;5189253;28;20958;-58
2021/09/18 12:43:31;;;;;;;8.45;2.70;;;23.10;65.30;;;;;;5181695;28;20514;-58
2021/09/18 12:46:14;;;;;;;8.98;2.97;;;23.20;65.60;;;;;;5232691;27;20417;-57
2021/09/18 12:49:03;;;;;;;6.30;2.30;;;23.20;66.00;;;;;;5229945;27;20969;-58
2021/09/18 12:51:59;;;;;;;4.35;2.95;;;23.30;66.30;;;;;;5206418;27;20495;-58
2021/09/18 12:54:43;;;;;;;5.43;2.65;;;23.30;66.40;;;;;;5199652;27;20418;-58
2021/09/18 12:57:32;;;;;;;8.63;2.70;;;23.30;66.50;;;;;;5189331;27;21486;-60
2021/09/18 13:00:16;;;;;;;4.50;2.50;;;23.40;66.30;;;;;;5177386;27;20406;-59
2021/09/18 13:03:10;;;;;;;3.72;2.42;;;23.40;66.40;;;;;;5160715;28;21051;-59
2021/09/18 13:06:02;;;;;;;5.50;2.60;;;23.40;66.50;;;;;;5232272;27;20418;-58
2021/09/18 13:08:51;;;;;;;5.82;2.88;;;23.40;67.20;;;;;;5195790;27;20383;-57
2021/09/18 13:11:49;;;;;;;8.80;2.67;;;23.40;66.70;;;;;;5201951;27;20409;-58
2021/09/18 13:14:35;;;;;;;7.95;2.45;;;23.40;66.80;;;;;;5215682;27;21064;-58
2021/09/18 13:17:22;;;;;;;8.98;2.80;;;23.50;67.00;;;;;;5200536;27;20411;-61
2021/09/18 13:20:15;;;;;;;7.50;2.88;;;23.40;66.80;;;;;;5194553;27;22483;-61
2021/09/18 13:22:58;;;;;;;14.70;3.05;;;23.40;66.20;;;;;;5183499;27;20365;-60
2021/09/18 13:25:42;;;;;;;3.42;2.28;;;23.40;65.40;;;;;;5197984;27;20414;-58
2021/09/18 13:28:28;;;;;;;5.00;2.30;;;23.40;65.10;;;;;;5206519;27;20475;-57
2021/09/18 13:31:12;;;;;;;6.28;2.75;;;23.40;64.70;;;;;;5173645;28;20511;-59
2021/09/18 13:33:55;;;;;;;6.30;2.47;;;23.50;65.40;;;;;;5181410;27;20416;-60
2021/09/18 13:36:38;;;;;;;6.43;2.70;;;23.50;65.30;;;;;;5222125;27;20413;-60
2021/09/18 13:39:21;;;;;;;6.22;2.45;;;23.50;65.30;;;;;;5180577;28;20411;-59